createdAt,value
2023-02-16T00:04:51.595Z,87.60
2023-02-16T00:09:51.834Z,32.90
2023-02-16T00:14:50.613Z,42.20
2023-02-16T00:19:49.250Z,37.57
2023-02-16T00:24:47.999Z,216.00
2023-02-16T00:29:48.183Z,66.90
2023-02-16T00:34:46.936Z,51.22
2023-02-16T00:39:46.626Z,38.45
2023-02-16T00:44:49.437Z,42.95
2023-02-16T00:49:48.335Z,38.33
2023-02-16T00:54:48.970Z,69.88
2023-02-16T00:59:53.220Z,56.25
2023-02-16T01:04:52.220Z,53.30
2023-02-16T01:10:08.119Z,55.15
2023-02-16T01:15:13.994Z,47.28
2023-02-16T01:20:17.724Z,45.87
2023-02-16T01:30:21.251Z,37.22
2023-02-16T01:35:20.649Z,46.42
2023-02-16T01:40:37.060Z,28.13
2023-02-16T01:45:41.599Z,43.33
2023-02-16T01:50:50.028Z,42.03
2023-02-16T01:55:52.983Z,25.40
2023-02-16T02:01:35.432Z,24.80
2023-02-16T02:06:36.714Z,30.80
2023-02-16T02:11:41.677Z,18.13
2023-02-16T02:16:41.054Z,17.67
2023-02-16T02:22:24.296Z,18.60
2023-02-16T02:27:26.268Z,20.20
2023-02-16T02:32:38.710Z,18.97
2023-02-16T02:37:45.843Z,23.23
2023-02-16T02:42:58.491Z,18.17
2023-02-16T02:47:58.095Z,25.57
2023-02-16T02:52:59.873Z,30.53
2023-02-16T02:58:18.543Z,26.25
2023-02-16T03:03:23.276Z,24.83
2023-02-16T03:08:25.357Z,18.73
2023-02-16T03:13:29.598Z,20.97
2023-02-16T03:18:47.000Z,20.73
2023-02-16T03:24:06.097Z,37.53
2023-02-16T03:29:19.364Z,36.43
2023-02-16T03:34:19.678Z,25.08
2023-02-16T03:39:23.944Z,23.73
2023-02-16T03:44:27.127Z,23.17
2023-02-16T03:49:26.567Z,18.37
2023-02-16T03:54:25.450Z,18.73
2023-02-16T03:59:24.185Z,20.20
2023-02-16T04:04:24.413Z,18.33
2023-02-16T04:09:23.234Z,20.73
2023-02-16T04:14:21.998Z,28.03
2023-02-16T04:19:21.030Z,29.63
2023-02-16T04:24:21.268Z,34.47
2023-02-16T04:29:23.059Z,34.33
2023-02-16T04:34:22.179Z,38.03
2023-02-16T04:39:22.380Z,31.83
2023-02-16T04:44:21.197Z,34.90
2023-02-16T04:49:20.020Z,40.27
2023-02-16T04:54:19.354Z,75.07
2023-02-16T04:59:19.498Z,130.20
2023-02-16T05:04:18.501Z,88.00
2023-02-16T05:09:17.278Z,79.77
2023-02-16T05:14:42.900Z,251.70
2023-02-16T05:19:43.184Z,136.47
2023-02-16T05:24:42.798Z,122.47
2023-02-16T05:29:43.035Z,115.47
2023-02-16T05:34:44.498Z,151.93
2023-02-16T05:39:43.577Z,113.43
2023-02-16T05:44:50.577Z,391.40
2023-02-16T05:49:52.849Z,104.03
2023-02-16T05:54:51.682Z,118.63
2023-02-16T05:59:51.882Z,63.60
2023-02-16T06:04:50.610Z,51.37
2023-02-16T06:09:49.494Z,50.53
2023-02-16T06:14:48.202Z,45.07
2023-02-16T06:19:48.369Z,44.03
2023-02-16T06:24:47.164Z,43.58
2023-02-16T06:29:45.979Z,42.83
2023-02-16T06:34:44.934Z,42.23
2023-02-16T06:39:47.504Z,46.83
2023-02-16T06:44:46.331Z,50.92
2023-02-16T06:49:45.296Z,38.72
2023-02-16T06:54:44.379Z,37.10
2023-02-16T06:59:44.552Z,52.77
2023-02-16T07:04:43.601Z,38.40
2023-02-16T07:09:42.320Z,34.13
2023-02-16T07:14:43.112Z,38.35
2023-02-16T07:19:44.169Z,37.17
2023-02-16T07:24:42.912Z,41.70
2023-02-16T07:29:41.668Z,41.72
2023-02-16T07:34:40.502Z,57.60
2023-02-16T07:39:40.615Z,48.55
2023-02-16T07:44:39.371Z,46.42
2023-02-16T07:49:38.097Z,37.80
2023-02-16T07:54:37.037Z,32.63
2023-02-16T07:59:37.300Z,33.30
2023-02-16T08:04:36.013Z,28.90
2023-02-16T08:09:35.645Z,30.38
2023-02-16T08:14:34.530Z,28.67
2023-02-16T08:19:35.136Z,28.65
2023-02-16T08:24:34.918Z,25.88
2023-02-16T08:29:34.643Z,24.33
2023-02-16T08:34:39.232Z,25.55
2023-02-16T08:39:38.802Z,28.50
2023-02-16T08:44:37.620Z,27.55
2023-02-16T08:49:38.419Z,27.88
2023-02-16T08:54:37.342Z,26.30
2023-02-16T08:59:36.159Z,26.92
2023-02-16T09:04:36.871Z,24.10
2023-02-16T09:09:37.217Z,29.83
2023-02-16T09:14:37.083Z,29.02
2023-02-16T09:19:36.174Z,28.27
2023-02-16T09:24:37.799Z,23.17
2023-02-16T09:29:36.576Z,25.38
2023-02-16T09:34:35.385Z,26.55
2023-02-16T09:39:34.158Z,28.98
2023-02-16T09:44:44.669Z,30.75
2023-02-16T09:49:45.221Z,25.20
2023-02-16T09:54:49.344Z,24.92
2023-02-16T09:59:56.286Z,25.42
2023-02-16T10:05:13.388Z,28.15
2023-02-16T10:10:17.819Z,26.52
2023-02-16T10:15:22.468Z,28.42
2023-02-16T10:20:26.324Z,24.83
2023-02-16T10:25:31.728Z,23.00
2023-02-16T10:30:33.668Z,25.25
2023-02-16T10:35:46.884Z,26.75
2023-02-16T10:40:56.404Z,27.48
2023-02-16T10:46:00.273Z,25.77
2023-02-16T10:51:03.373Z,26.27
2023-02-16T10:56:02.387Z,22.67
2023-02-16T11:01:11.414Z,25.05
2023-02-16T11:06:15.890Z,22.45
2023-02-16T11:11:14.907Z,22.88
2023-02-16T11:16:24.477Z,24.63
2023-02-16T11:21:42.875Z,21.88
2023-02-16T11:26:41.869Z,21.92
2023-02-16T11:31:42.325Z,20.73
2023-02-16T11:36:45.060Z,21.25
2023-02-16T11:46:45.571Z,20.13
2023-02-16T11:51:44.981Z,19.77
2023-02-16T11:56:46.189Z,18.75
2023-02-16T12:02:13.315Z,20.75
2023-02-16T12:07:23.150Z,18.52
2023-02-16T12:12:32.491Z,17.63
2023-02-16T12:17:48.133Z,17.38
2023-02-16T12:22:49.972Z,17.95
2023-02-16T12:27:53.931Z,18.50
2023-02-16T12:33:08.158Z,19.80
2023-02-16T12:38:15.330Z,18.42
2023-02-16T12:43:33.978Z,17.50
2023-02-16T12:48:43.379Z,18.58
2023-02-16T12:53:48.354Z,16.65
2023-02-16T12:58:53.512Z,17.17
2023-02-16T13:03:58.717Z,16.80
2023-02-16T13:09:12.770Z,16.48
2023-02-16T13:14:18.064Z,16.35
2023-02-16T13:19:18.918Z,15.85
2023-02-16T13:24:26.435Z,17.15
2023-02-16T13:29:48.148Z,17.55
2023-02-16T13:35:13.972Z,14.90
2023-02-16T13:40:37.537Z,15.25
2023-02-16T13:45:41.016Z,14.15
2023-02-16T13:50:41.601Z,15.55
2023-02-16T13:55:41.993Z,15.43
2023-02-16T14:00:43.996Z,15.45
2023-02-16T14:05:45.675Z,16.48
2023-02-16T14:11:11.776Z,14.55
2023-02-16T14:16:13.452Z,14.63
2023-02-16T14:21:28.701Z,15.98
2023-02-16T14:26:28.554Z,17.90
2023-02-16T14:31:31.950Z,19.73
2023-02-16T14:36:34.849Z,16.17
2023-02-16T14:41:36.965Z,17.13
2023-02-16T14:46:48.404Z,21.23
2023-02-16T14:52:07.164Z,18.33
2023-02-16T14:57:13.529Z,14.98
2023-02-16T15:02:32.362Z,16.17
2023-02-16T15:07:32.905Z,17.27
2023-02-16T15:12:33.661Z,16.40
2023-02-16T15:17:37.108Z,16.45
2023-02-16T15:22:44.443Z,16.73
2023-02-16T15:27:54.043Z,16.85
2023-02-16T15:32:56.176Z,15.20
2023-02-16T15:38:09.772Z,18.20
2023-02-16T15:43:24.316Z,19.40
2023-02-16T15:48:27.879Z,21.42
2023-02-16T15:53:37.188Z,26.00
2023-02-16T15:58:35.999Z,34.80
2023-02-16T16:03:34.900Z,36.40
2023-02-16T16:08:35.443Z,41.85
2023-02-16T16:13:36.500Z,43.70
2023-02-16T16:18:47.775Z,38.78
2023-02-16T16:24:12.419Z,45.72
2023-02-16T16:29:34.055Z,46.53
2023-02-16T16:34:36.504Z,41.67
2023-02-16T16:39:41.806Z,44.28
2023-02-16T16:44:43.370Z,40.10
2023-02-16T16:49:53.243Z,43.47
2023-02-16T16:55:08.132Z,45.15
2023-02-16T17:00:26.840Z,44.92
2023-02-16T17:05:36.036Z,51.53
2023-02-16T17:10:37.884Z,52.85
2023-02-16T17:15:44.089Z,53.25
2023-02-16T17:20:43.202Z,65.25
2023-02-16T17:25:43.848Z,59.88
2023-02-16T17:30:46.298Z,66.55
2023-02-16T17:35:46.390Z,67.18
2023-02-16T17:40:48.166Z,87.55
2023-02-16T17:45:48.928Z,100.50
2023-02-16T17:50:49.444Z,102.00
2023-02-16T17:55:51.811Z,124.13
2023-02-16T18:00:56.528Z,130.63
2023-02-16T18:05:57.889Z,137.90
2023-02-16T18:11:02.250Z,170.50
2023-02-16T18:16:04.127Z,152.82
2023-02-16T18:21:06.501Z,160.38
2023-02-16T18:26:07.949Z,189.20
2023-02-16T18:31:08.387Z,164.40
2023-02-16T18:36:08.237Z,140.77
2023-02-16T18:41:09.207Z,120.90
2023-02-16T18:46:09.424Z,132.32
2023-02-16T18:51:10.088Z,122.25
2023-02-16T18:56:12.401Z,112.55
2023-02-16T19:01:21.373Z,97.90
2023-02-16T19:06:24.332Z,103.38
2023-02-16T19:11:24.824Z,73.80
2023-02-16T19:16:23.730Z,60.95
2023-02-16T19:21:22.531Z,59.50
2023-02-16T19:26:21.540Z,60.63
2023-02-16T19:31:28.452Z,81.43
2023-02-16T19:36:32.088Z,81.78
2023-02-16T19:46:35.822Z,47.30
2023-02-16T19:51:37.490Z,48.53
2023-02-16T19:57:01.702Z,47.35
2023-02-16T20:02:07.460Z,50.45
2023-02-16T20:07:09.950Z,58.78
2023-02-16T20:12:15.735Z,52.40
2023-02-16T20:17:16.904Z,42.95
2023-02-16T20:22:20.719Z,40.22
2023-02-16T20:27:20.104Z,35.28
2023-02-16T20:32:25.666Z,38.28
2023-02-16T20:37:26.239Z,41.53
2023-02-16T20:42:25.820Z,51.75
2023-02-16T20:47:27.114Z,50.97
2023-02-16T20:52:26.294Z,48.33
2023-02-16T20:57:43.286Z,43.55
2023-02-16T21:02:46.876Z,39.47
2023-02-16T21:07:48.485Z,36.05
2023-02-16T21:12:52.612Z,34.35
2023-02-16T21:17:57.696Z,32.75
2023-02-16T21:22:59.274Z,30.75
2023-02-16T21:27:59.925Z,29.75
2023-02-16T21:33:01.433Z,31.00
2023-02-16T21:38:01.644Z,30.75
2023-02-16T21:43:07.629Z,30.92
2023-02-16T21:48:34.003Z,31.35
2023-02-16T21:53:35.533Z,29.50
2023-02-16T21:58:36.549Z,29.27
2023-02-16T22:03:37.578Z,29.58
2023-02-16T22:08:39.750Z,30.50
2023-02-16T22:13:39.333Z,29.90
2023-02-16T22:18:40.620Z,32.03
2023-02-16T22:23:40.368Z,31.83
2023-02-16T22:28:39.669Z,29.38
2023-02-16T22:33:39.864Z,30.08
2023-02-16T22:38:38.660Z,30.40
2023-02-16T22:43:38.211Z,29.65
2023-02-16T22:48:37.569Z,29.13
2023-02-16T22:53:38.179Z,28.55
2023-02-16T22:58:37.650Z,29.33
2023-02-16T23:03:36.377Z,29.15
2023-02-16T23:08:37.634Z,27.38
2023-02-16T23:13:38.604Z,30.08
2023-02-16T23:18:38.088Z,28.65
2023-02-16T23:23:37.308Z,27.52
2023-02-16T23:28:38.425Z,28.65
2023-02-16T23:33:37.616Z,25.92
2023-02-16T23:38:36.697Z,25.58
2023-02-16T23:43:37.040Z,26.45
2023-02-16T23:48:36.285Z,25.05
2023-02-16T23:53:35.728Z,27.20
2023-02-16T23:58:41.221Z,29.35
